Have a Safe July 4th! 

Flight Track Log - Related Links

Times and Time Zones

All times are in EST time to prevent confusion due to time zone crossing. See the UPS1337 flight status page for this flight to view local times or setup timezone preferences in your user account.

Time Position Orientation Groundspeed Altitude Reporting Facility
EST Latitude Longitude Course Direction KTS MPH feet Rate Location/Type
Wed 09:40:07 PM 27.9167 -82.6833 12° North 171 197 900  Level Tampa TRACON
Wed 09:41:25 PM 27.9833 -82.6667 12° North 245 282 3,400 1,565 Climbing Tampa TRACON
Wed 09:42:25 PM 28.0667 -82.6500 10° North 284 327 4,500 1,856 Climbing Tampa TRACON
Wed 09:48:22 PM 28.5778 -82.6164 North 419 482 16,300 2,109 Climbing FlightAware ADS-B
Wed 09:51:34 PM 28.9821 -82.6031 North 463 533 23,800 2,238 Climbing FlightAware ADS-B
Wed 09:52:34 PM 29.1001 -82.5992 North 475 547 25,700 2,110 Climbing FlightAware ADS-B
Wed 09:53:05 PM 29.1792 -82.5964 North 469 540 27,000 2,273 Climbing FlightAware ADS-B
Wed 09:55:15 PM 29.4536 -82.5874 North 446 513 31,800 2,063 Climbing FlightAware ADS-B
Wed 09:55:45 PM 29.5165 -82.5854 North 446 513 32,500 1,029 Climbing FlightAware ADS-B
Wed 09:56:25 PM 29.5989 -82.5828 North 454 522 33,000 423 Climbing FlightAware ADS-B
Wed 09:56:56 PM 29.6636 -82.5807 North 454 522 33,000  Level FlightAware ADS-B
Wed 09:57:26 PM 29.7273 -82.5785 North 451 519 33,000  Level FlightAware ADS-B
Wed 09:57:57 PM 29.7915 -82.5764 North 446 513 33,000  Level FlightAware ADS-B
Wed 09:58:36 PM 29.8729 -82.5736 North 442 509 33,000  Level FlightAware ADS-B
Wed 09:59:07 PM 29.9358 -82.5715 North 442 509 33,000  Level FlightAware ADS-B
Wed 09:59:46 PM 30.0169 -82.5691 North 446 513 33,000  Level FlightAware ADS-B
Wed 10:00:27 PM 30.1012 -82.5662 North 445 512 33,000  Level FlightAware ADS-B
Wed 10:00:57 PM 30.1625 -82.5641 North 445 512 33,000  Level FlightAware ADS-B
Wed 10:01:28 PM 30.2265 -82.5620 North 445 512 33,000  Level FlightAware ADS-B
Wed 10:02:29 PM 30.3501 -82.5579 North 444 511 33,000  Level FlightAware ADS-B
Wed 10:03:39 PM 30.4961 -82.5530 North 444 511 33,000  Level FlightAware ADS-B
Wed 10:04:09 PM 30.5539 -82.5509 North 445 512 33,000  Level FlightAware ADS-B
Wed 10:05:19 PM 30.6940 -82.5706 348° North 416 479 33,000  Level FlightAware ADS-B
Wed 10:05:58 PM 30.7679 -82.5888 348° North 418 481 33,000  Level FlightAware ADS-B
Wed 10:06:48 PM 30.8467 -82.6094 348° North 422 486 33,000  Level Jacksonville Center
Wed 10:07:48 PM 30.9594 -82.6381 348° North 417 480 33,000  Level Jacksonville Center
Wed 10:08:48 PM 31.0744 -82.6669 348° North 411 473 33,000  Level Jacksonville Center
Wed 10:09:48 PM 31.1850 -82.6911 349° North 411 473 33,000  Level Jacksonville Center
Wed 10:10:48 PM 31.3000 -82.7150 350° North 411 473 33,000  Level Jacksonville Center
Wed 10:12:27 PM 31.4833 -82.7628 347° North 421 484 33,000  Level Atlanta Center
Wed 10:13:27 PM 31.5922 -82.7956 346° North 416 479 33,000  Level Atlanta Center
Wed 10:14:27 PM 31.7011 -82.8331 344° North 406 467 33,000  Level Atlanta Center
Wed 10:15:27 PM 31.8100 -82.8706 344° North 401 461 33,000  Level Atlanta Center
Wed 10:16:27 PM 31.9292 -82.9083 345° North 406 467 33,000  Level Atlanta Center
Wed 10:17:27 PM 32.0381 -82.9436 345° North 406 467 33,000  Level Atlanta Center
Wed 10:18:27 PM 32.1469 -82.9839 343° North 406 467 33,000  Level Atlanta Center
Wed 10:19:27 PM 32.2558 -83.0197 344° North 406 467 33,000  Level Atlanta Center
Wed 10:20:27 PM 32.3667 -83.0553 345° North 406 467 33,000  Level Atlanta Center
Wed 10:21:27 PM 32.4756 -83.0933 344° North 400 460 33,000  Level Atlanta Center
Wed 10:22:27 PM 32.5864 -83.1292 345° North 400 460 33,000  Level Atlanta Center
Wed 10:23:27 PM 32.6933 -83.1675 343° North 400 460 33,000  Level Atlanta Center
Wed 10:24:27 PM 32.7769 -83.1964 344° North 400 460 33,000  Level Atlanta Center
Wed 10:25:27 PM 32.8919 -83.2347 344° North 395 455 33,000  Level Atlanta Center
Wed 10:26:27 PM 33.0092 -83.2758 344° North 402 463 33,000  Level Atlanta Center
Wed 10:27:27 PM 33.1033 -83.3097 343° North 402 463 33,000  Level Atlanta Center
Wed 10:28:27 PM 33.2100 -83.3461 344° North 397 457 33,000  Level Atlanta Center
Wed 10:29:27 PM 33.3144 -83.3800 345° North 397 457 33,000  Level Atlanta Center
Wed 10:30:27 PM 33.4192 -83.4167 344° North 397 457 33,000  Level Atlanta Center
Wed 10:31:27 PM 33.5278 -83.4533 344° North 397 457 33,000  Level Atlanta Center
Wed 10:32:27 PM 33.6344 -83.4875 345° North 397 457 33,000 -16 Level Atlanta Center
Wed 10:37:52 PM 34.2449 -83.7007 343° North 405 466 32,900 -115 Descending FlightAware ADS-B (KDZJ)
Wed 10:38:31 PM 34.3167 -83.7262 344° North 417 480 32,300 -720 Descending FlightAware ADS-B (KDZJ)
Wed 10:39:07 PM 34.3841 -83.7495 344° North 406 467 32,000 -228 Descending FlightAware ADS-B (KDZJ)
Wed 10:39:50 PM 34.4635 -83.7774 343° North 405 466 32,000  Level FlightAware ADS-B (KDZJ)
Wed 10:40:31 PM 34.5385 -83.8042 343° North 407 468 32,000  Level FlightAware ADS-B (KDZJ)
Wed 10:41:11 PM 34.6125 -83.8306 344° North 418 481 32,000  Level FlightAware ADS-B (KDZJ)
Wed 10:41:51 PM 34.6870 -83.8569 344° North 419 482 32,000  Level FlightAware ADS-B (KDZJ)
Wed 10:42:31 PM 34.7605 -83.8835 344° North 419 482 32,000  Level FlightAware ADS-B (KDZJ)
Wed 10:43:09 PM 34.8327 -83.9088 344° North 418 481 32,000  Level FlightAware ADS-B (KDZJ)
Wed 10:43:52 PM 34.9112 -83.9371 344° North 417 480 32,000  Level FlightAware ADS-B (KDZJ)
Wed 10:44:24 PM 34.9709 -83.9583 344° North 421 484 32,000  Level FlightAware ADS-B (KDZJ)
Wed 10:45:12 PM 35.0614 -83.9909 343° North 420 483 32,000  Level FlightAware ADS-B (KDZJ)
Wed 10:45:53 PM 35.1390 -84.0190 343° North 417 480 32,000  Level FlightAware ADS-B (KDZJ)
Wed 10:46:29 PM 35.2064 -84.0429 344° North 417 480 32,000  Level FlightAware ADS-B (KDZJ)
Wed 10:47:28 PM 35.3164 -84.0820 343° North 405 466 32,000  Level FlightAware ADS-B (KDZJ)
Wed 10:48:27 PM 35.4011 -84.1153 343° North 419 482 32,000  Level Atlanta Center
Wed 10:49:27 PM 35.5117 -84.1561 343° North 419 482 32,000 -174 Level Atlanta Center
Wed 10:55:20 PM 35.5168 -84.1553 344° North 421 484 30,800 -286 Descending FlightAware ADS-B (KMDQ)
Wed 10:56:05 PM 36.2575 -84.4269 344° North 413 475 30,100 -453 Descending Indianapolis Center
Wed 10:57:06 PM 36.3650 -84.4669 343° North 409 471 30,000 -49 Descending Indianapolis Center
Wed 10:58:07 PM 36.4731 -84.5058 344° North 409 471 30,000  Level Indianapolis Center
Wed 10:59:08 PM 36.5794 -84.5467 343° North 405 466 30,000 -492 Level Indianapolis Center
Wed 11:00:09 PM 36.6867 -84.5867 343° North 405 466 29,000 -1,672 Descending Indianapolis Center
Wed 11:01:10 PM 36.7917 -84.6267 343° North 400 460 26,600 -2,032 Descending Indianapolis Center
Wed 11:06:24 PM 37.2936 -84.7913 North 324 373 16,300 -1,948 Descending FlightAware ADS-B
Wed 11:06:55 PM 37.3328 -84.7909 North 327 376 15,400 -1,118 Descending FlightAware ADS-B
Wed 11:11:30 PM 37.6794 -84.9868 313° West 285 328 10,600 -985 Descending FlightAware ADS-B
Wed 11:12:30 PM 37.7319 -85.0604 312° West 271 312 9,900 -600 Descending FlightAware ADS-B
Wed 11:13:30 PM 37.7661 -85.1298 295° West 241 277 9,400 -756 Descending FlightAware ADS-B
Wed 11:14:37 PM 37.7991 -85.2190 295° West 233 268 8,300 -945 Descending FlightAware ADS-B
Wed 11:15:37 PM 37.8247 -85.2904 294° West 228 262 7,400 -950 Descending FlightAware ADS-B
Wed 11:16:37 PM 37.8519 -85.3648 295° West 230 265 6,400 -1,017 Descending FlightAware ADS-B
Wed 11:17:35 PM 37.8781 -85.4361 295° West 232 267 5,400 -1,017 Descending FlightAware ADS-B
Wed 11:18:35 PM 37.9053 -85.5109 294° West 228 262 4,400 -988 Descending FlightAware ADS-B
Wed 11:19:00 PM 37.9161 -85.5412 295° West 232 267 4,000 -968 Descending FlightAware ADS-B (KIXA)
Wed 11:19:37 PM 37.9318 -85.5845 294° West 224 258 3,400 -625 Descending FlightAware ADS-B
Wed 11:20:36 PM 37.9577 -85.6559 299° West 225 259 3,000 -202 Descending FlightAware ADS-B
Wed 11:21:36 PM 38.0093 -85.7014 North 228 262 3,000 -248 Level FlightAware ADS-B
Wed 11:22:37 PM 38.0624 -85.7078 343° North 185 213 2,500 -645 Descending FlightAware ADS-B
Wed 11:23:37 PM 38.1109 -85.7233 345° North 153 176 1,700 -894 Descending FlightAware ADS-B
Wed 11:24:11 PM 38.1170 -85.7254 345° North 127 146 1,100 -1,059 Descending FlightAware ADS-B
Wed 11:31:00 PM 38.1667 -85.7333 208° Southwest  Level FlightAware Approximate
Wed 11:32:00 PM 38.1741 -85.7365 208° Southwest  Level Estimated

Login

Don't have an account? Register now (free) for customized features, flight alerts, and more!